Univ of New Mexico, New Mexico
Current Conditions -  °F | °C
As of 4:52 PM on Thursday 18 Dec 2014 (Local Time) from KABQ Reporting Station
Overcast Overcast  
Wind Chill: 37°   Ceiling: 8500
Heat Index: 42°   Visibility: 10mi
Dew Point: 26°   Wind: 8mph
Humidity: 53%   Direction: 330°NNW
Pressure: 30.1"   Gusts: NA
Location:  35.0806°N, 106.618°W
Report Text: KABQ 182352Z 33007KT 10SM SCT040 BKN085 BKN120 OVC230 06/M03 A3010 RMK AO2 SLP193 ACSL E MTN TOPS OBSC NE AND SE T00561033 10072 20039 53004
Loading
Personal Weather Stations






























Interactive Weather Map New forecast layout! Learn more

10-Day Weather Forecast

Advertisements
Track Severe Weather on mobile